Tocumen International Airport

MPTO | PTY

Tocumen , Panama , Panama

Sunday, January 26th, 2020 | 18:54

Weather

MPTO 262300Z 30007KT 9999 FEW020 30/20 Q1011 NOSIG

Charts

No Charts Available

Gates

85 Available

Runways

2 Available

Events

No events for this airport


New event